sensor_id;sensor_type;location;lat;lon;timestamp;P1;durP1;ratioP1;P2;durP2;ratioP2
75386;SDS011;63966;47.914;22.266;2023-04-19T00:01:13;5.82;;;2.60;;
75386;SDS011;63966;47.914;22.266;2023-04-19T00:04:17;5.97;;;2.70;;
75386;SDS011;63966;47.914;22.266;2023-04-19T00:07:22;6.93;;;2.38;;
75386;SDS011;63966;47.914;22.266;2023-04-19T00:10:25;6.45;;;2.72;;
75386;SDS011;63966;47.914;22.266;2023-04-19T00:13:28;9.57;;;2.73;;
75386;SDS011;63966;47.914;22.266;2023-04-19T00:16:32;8.30;;;2.47;;
75386;SDS011;63966;47.914;22.266;2023-04-19T00:19:36;6.55;;;2.47;;
75386;SDS011;63966;47.914;22.266;2023-04-19T00:22:39;7.03;;;2.08;;
75386;SDS011;63966;47.914;22.266;2023-04-19T00:25:44;8.77;;;2.60;;
75386;SDS011;63966;47.914;22.266;2023-04-19T00:28:47;8.13;;;2.53;;
75386;SDS011;63966;47.914;22.266;2023-04-19T00:31:51;7.80;;;2.90;;
75386;SDS011;63966;47.914;22.266;2023-04-19T00:34:54;5.70;;;2.78;;
75386;SDS011;63966;47.914;22.266;2023-04-19T00:37:57;8.50;;;2.60;;
75386;SDS011;63966;47.914;22.266;2023-04-19T00:41:01;7.88;;;2.50;;
75386;SDS011;63966;47.914;22.266;2023-04-19T00:44:05;10.57;;;2.50;;
75386;SDS011;63966;47.914;22.266;2023-04-19T00:47:08;8.55;;;2.35;;
75386;SDS011;63966;47.914;22.266;2023-04-19T00:50:11;5.90;;;2.30;;
75386;SDS011;63966;47.914;22.266;2023-04-19T00:53:15;7.53;;;2.13;;
75386;SDS011;63966;47.914;22.266;2023-04-19T00:56:20;6.05;;;2.58;;
75386;SDS011;63966;47.914;22.266;2023-04-19T00:59:28;7.03;;;2.50;;
75386;SDS011;63966;47.914;22.266;2023-04-19T01:02:34;7.05;;;2.38;;
75386;SDS011;63966;47.914;22.266;2023-04-19T01:05:38;6.05;;;2.20;;
75386;SDS011;63966;47.914;22.266;2023-04-19T01:08:41;6.43;;;2.40;;
75386;SDS011;63966;47.914;22.266;2023-04-19T01:11:45;5.45;;;2.30;;
75386;SDS011;63966;47.914;22.266;2023-04-19T01:14:49;6.53;;;2.70;;
75386;SDS011;63966;47.914;22.266;2023-04-19T01:17:52;6.07;;;2.50;;
75386;SDS011;63966;47.914;22.266;2023-04-19T01:20:58;6.45;;;2.70;;
75386;SDS011;63966;47.914;22.266;2023-04-19T01:24:01;5.53;;;2.42;;
75386;SDS011;63966;47.914;22.266;2023-04-19T01:27:05;6.45;;;2.67;;
75386;SDS011;63966;47.914;22.266;2023-04-19T01:30:10;6.03;;;2.17;;
75386;SDS011;63966;47.914;22.266;2023-04-19T01:33:13;6.53;;;2.53;;
75386;SDS011;63966;47.914;22.266;2023-04-19T01:36:17;11.27;;;2.85;;
75386;SDS011;63966;47.914;22.266;2023-04-19T01:39:21;5.88;;;2.22;;
75386;SDS011;63966;47.914;22.266;2023-04-19T01:42:27;5.80;;;2.17;;
75386;SDS011;63966;47.914;22.266;2023-04-19T01:45:30;7.70;;;2.13;;
75386;SDS011;63966;47.914;22.266;2023-04-19T01:48:35;6.93;;;2.20;;
75386;SDS011;63966;47.914;22.266;2023-04-19T01:51:39;7.18;;;2.40;;
75386;SDS011;63966;47.914;22.266;2023-04-19T01:54:42;6.90;;;2.50;;
75386;SDS011;63966;47.914;22.266;2023-04-19T01:57:46;6.05;;;2.47;;
75386;SDS011;63966;47.914;22.266;2023-04-19T02:00:49;5.77;;;2.30;;
75386;SDS011;63966;47.914;22.266;2023-04-19T02:03:53;7.45;;;2.10;;
75386;SDS011;63966;47.914;22.266;2023-04-19T02:06:56;9.05;;;2.33;;
75386;SDS011;63966;47.914;22.266;2023-04-19T02:10:03;5.68;;;2.15;;
75386;SDS011;63966;47.914;22.266;2023-04-19T02:13:08;5.53;;;2.22;;
75386;SDS011;63966;47.914;22.266;2023-04-19T02:16:12;7.13;;;2.30;;
75386;SDS011;63966;47.914;22.266;2023-04-19T02:19:16;8.10;;;2.22;;
75386;SDS011;63966;47.914;22.266;2023-04-19T02:22:20;6.53;;;2.40;;
75386;SDS011;63966;47.914;22.266;2023-04-19T02:25:24;7.93;;;2.50;;
75386;SDS011;63966;47.914;22.266;2023-04-19T02:28:31;8.43;;;2.20;;
75386;SDS011;63966;47.914;22.266;2023-04-19T02:31:35;6.43;;;1.80;;
75386;SDS011;63966;47.914;22.266;2023-04-19T02:34:38;5.50;;;1.80;;
75386;SDS011;63966;47.914;22.266;2023-04-19T02:37:43;7.03;;;2.50;;
75386;SDS011;63966;47.914;22.266;2023-04-19T02:40:46;6.20;;;2.17;;
75386;SDS011;63966;47.914;22.266;2023-04-19T02:43:51;6.63;;;2.08;;
75386;SDS011;63966;47.914;22.266;2023-04-19T02:46:54;6.20;;;1.90;;
75386;SDS011;63966;47.914;22.266;2023-04-19T02:49:58;5.85;;;1.90;;
75386;SDS011;63966;47.914;22.266;2023-04-19T02:53:04;6.60;;;2.15;;
75386;SDS011;63966;47.914;22.266;2023-04-19T02:56:08;11.43;;;2.17;;
75386;SDS011;63966;47.914;22.266;2023-04-19T02:59:12;5.25;;;1.95;;
75386;SDS011;63966;47.914;22.266;2023-04-19T03:02:16;5.33;;;2.00;;
75386;SDS011;63966;47.914;22.266;2023-04-19T03:05:19;5.47;;;2.00;;
75386;SDS011;63966;47.914;22.266;2023-04-19T03:08:23;6.18;;;2.20;;
75386;SDS011;63966;47.914;22.266;2023-04-19T03:11:26;6.03;;;2.40;;
75386;SDS011;63966;47.914;22.266;2023-04-19T03:14:30;8.48;;;2.38;;
75386;SDS011;63966;47.914;22.266;2023-04-19T03:17:35;7.17;;;2.00;;
75386;SDS011;63966;47.914;22.266;2023-04-19T03:20:40;7.88;;;2.00;;
75386;SDS011;63966;47.914;22.266;2023-04-19T03:23:44;8.90;;;2.45;;
75386;SDS011;63966;47.914;22.266;2023-04-19T03:26:48;5.93;;;2.40;;
75386;SDS011;63966;47.914;22.266;2023-04-19T03:29:57;7.45;;;2.50;;
75386;SDS011;63966;47.914;22.266;2023-04-19T03:33:01;8.93;;;2.37;;
75386;SDS011;63966;47.914;22.266;2023-04-19T03:36:04;7.22;;;2.40;;
75386;SDS011;63966;47.914;22.266;2023-04-19T03:39:09;5.10;;;2.13;;
75386;SDS011;63966;47.914;22.266;2023-04-19T03:42:15;6.47;;;2.40;;
75386;SDS011;63966;47.914;22.266;2023-04-19T03:45:41;4.90;;;2.50;;
75386;SDS011;63966;47.914;22.266;2023-04-19T03:48:46;10.07;;;4.50;;
75386;SDS011;63966;47.914;22.266;2023-04-19T03:51:50;36.28;;;18.20;;
75386;SDS011;63966;47.914;22.266;2023-04-19T03:54:54;18.30;;;8.93;;
75386;SDS011;63966;47.914;22.266;2023-04-19T03:58:08;9.55;;;4.00;;
75386;SDS011;63966;47.914;22.266;2023-04-19T04:01:27;10.00;;;3.78;;
75386;SDS011;63966;47.914;22.266;2023-04-19T04:04:31;6.23;;;2.53;;
75386;SDS011;63966;47.914;22.266;2023-04-19T04:07:35;8.20;;;3.15;;
75386;SDS011;63966;47.914;22.266;2023-04-19T04:10:38;9.52;;;2.90;;
75386;SDS011;63966;47.914;22.266;2023-04-19T04:13:42;9.55;;;2.70;;
75386;SDS011;63966;47.914;22.266;2023-04-19T04:17:00;27.02;;;14.77;;
75386;SDS011;63966;47.914;22.266;2023-04-19T04:20:05;36.27;;;18.37;;
75386;SDS011;63966;47.914;22.266;2023-04-19T04:23:10;14.05;;;6.05;;
75386;SDS011;63966;47.914;22.266;2023-04-19T04:26:20;24.75;;;11.02;;
75386;SDS011;63966;47.914;22.266;2023-04-19T04:29:42;15.60;;;5.78;;
75386;SDS011;63966;47.914;22.266;2023-04-19T04:32:47;7.18;;;3.00;;
75386;SDS011;63966;47.914;22.266;2023-04-19T04:35:53;9.30;;;3.10;;
75386;SDS011;63966;47.914;22.266;2023-04-19T04:39:01;8.35;;;3.53;;
75386;SDS011;63966;47.914;22.266;2023-04-19T04:42:05;12.13;;;3.78;;
75386;SDS011;63966;47.914;22.266;2023-04-19T04:45:11;9.32;;;3.70;;
75386;SDS011;63966;47.914;22.266;2023-04-19T04:48:17;8.73;;;3.53;;
75386;SDS011;63966;47.914;22.266;2023-04-19T04:51:21;6.07;;;2.67;;
75386;SDS011;63966;47.914;22.266;2023-04-19T04:54:27;9.20;;;2.83;;
75386;SDS011;63966;47.914;22.266;2023-04-19T04:57:32;6.47;;;2.33;;
75386;SDS011;63966;47.914;22.266;2023-04-19T05:00:37;9.68;;;2.83;;
75386;SDS011;63966;47.914;22.266;2023-04-19T05:03:42;8.75;;;2.85;;
75386;SDS011;63966;47.914;22.266;2023-04-19T05:06:51;10.87;;;2.60;;
75386;SDS011;63966;47.914;22.266;2023-04-19T05:10:00;8.95;;;3.08;;
75386;SDS011;63966;47.914;22.266;2023-04-19T05:13:11;7.43;;;3.50;;
75386;SDS011;63966;47.914;22.266;2023-04-19T05:16:15;6.63;;;2.80;;
75386;SDS011;63966;47.914;22.266;2023-04-19T05:19:21;7.13;;;3.35;;
75386;SDS011;63966;47.914;22.266;2023-04-19T05:22:32;6.13;;;2.93;;
75386;SDS011;63966;47.914;22.266;2023-04-19T05:25:36;6.60;;;2.80;;
75386;SDS011;63966;47.914;22.266;2023-04-19T05:28:40;5.90;;;3.17;;
75386;SDS011;63966;47.914;22.266;2023-04-19T05:31:54;5.43;;;2.90;;
75386;SDS011;63966;47.914;22.266;2023-04-19T05:35:03;6.82;;;2.92;;
75386;SDS011;63966;47.914;22.266;2023-04-19T05:38:07;6.90;;;3.00;;
75386;SDS011;63966;47.914;22.266;2023-04-19T05:41:10;6.28;;;2.95;;
75386;SDS011;63966;47.914;22.266;2023-04-19T05:44:14;8.73;;;3.35;;
75386;SDS011;63966;47.914;22.266;2023-04-19T05:47:18;9.82;;;3.38;;
75386;SDS011;63966;47.914;22.266;2023-04-19T05:50:48;7.60;;;3.28;;
75386;SDS011;63966;47.914;22.266;2023-04-19T05:54:33;6.43;;;2.53;;
75386;SDS011;63966;47.914;22.266;2023-04-19T05:57:38;8.15;;;3.40;;
75386;SDS011;63966;47.914;22.266;2023-04-19T06:00:42;10.45;;;3.40;;
75386;SDS011;63966;47.914;22.266;2023-04-19T06:03:50;8.20;;;3.25;;
75386;SDS011;63966;47.914;22.266;2023-04-19T06:06:55;7.40;;;3.42;;
75386;SDS011;63966;47.914;22.266;2023-04-19T06:09:59;6.63;;;3.20;;
75386;SDS011;63966;47.914;22.266;2023-04-19T06:13:03;6.65;;;2.90;;
75386;SDS011;63966;47.914;22.266;2023-04-19T06:16:07;8.05;;;3.05;;
75386;SDS011;63966;47.914;22.266;2023-04-19T06:19:11;5.68;;;3.00;;
75386;SDS011;63966;47.914;22.266;2023-04-19T06:22:15;6.72;;;3.20;;
75386;SDS011;63966;47.914;22.266;2023-04-19T06:25:18;7.17;;;3.37;;
75386;SDS011;63966;47.914;22.266;2023-04-19T06:28:22;12.80;;;3.30;;
75386;SDS011;63966;47.914;22.266;2023-04-19T06:31:25;6.03;;;2.80;;
75386;SDS011;63966;47.914;22.266;2023-04-19T06:34:29;17.25;;;3.90;;
75386;SDS011;63966;47.914;22.266;2023-04-19T06:37:32;8.52;;;3.25;;
75386;SDS011;63966;47.914;22.266;2023-04-19T06:40:36;7.03;;;2.77;;
75386;SDS011;63966;47.914;22.266;2023-04-19T06:43:40;5.93;;;2.72;;
75386;SDS011;63966;47.914;22.266;2023-04-19T06:46:44;5.28;;;3.00;;
75386;SDS011;63966;47.914;22.266;2023-04-19T06:49:47;5.97;;;2.83;;
75386;SDS011;63966;47.914;22.266;2023-04-19T06:52:51;7.38;;;3.28;;
75386;SDS011;63966;47.914;22.266;2023-04-19T06:55:59;7.93;;;3.17;;
75386;SDS011;63966;47.914;22.266;2023-04-19T06:59:03;5.10;;;3.10;;
75386;SDS011;63966;47.914;22.266;2023-04-19T07:02:06;4.97;;;2.65;;
75386;SDS011;63966;47.914;22.266;2023-04-19T07:05:11;5.43;;;2.70;;
75386;SDS011;63966;47.914;22.266;2023-04-19T07:08:14;8.48;;;2.92;;
75386;SDS011;63966;47.914;22.266;2023-04-19T07:11:18;6.20;;;2.80;;
75386;SDS011;63966;47.914;22.266;2023-04-19T07:14:23;7.00;;;3.17;;
75386;SDS011;63966;47.914;22.266;2023-04-19T07:17:27;5.47;;;2.70;;
75386;SDS011;63966;47.914;22.266;2023-04-19T07:20:30;4.43;;;2.38;;
75386;SDS011;63966;47.914;22.266;2023-04-19T07:23:34;5.40;;;2.92;;
75386;SDS011;63966;47.914;22.266;2023-04-19T07:26:37;5.73;;;2.80;;
75386;SDS011;63966;47.914;22.266;2023-04-19T07:29:42;8.20;;;3.38;;
75386;SDS011;63966;47.914;22.266;2023-04-19T07:32:46;6.22;;;2.50;;
75386;SDS011;63966;47.914;22.266;2023-04-19T07:35:49;9.75;;;4.72;;
75386;SDS011;63966;47.914;22.266;2023-04-19T07:38:53;7.00;;;3.03;;
75386;SDS011;63966;47.914;22.266;2023-04-19T07:41:56;5.87;;;2.30;;
75386;SDS011;63966;47.914;22.266;2023-04-19T07:45:00;8.57;;;3.55;;
75386;SDS011;63966;47.914;22.266;2023-04-19T07:48:04;7.45;;;3.67;;
75386;SDS011;63966;47.914;22.266;2023-04-19T07:51:08;6.63;;;3.00;;
75386;SDS011;63966;47.914;22.266;2023-04-19T07:54:17;4.93;;;2.55;;
75386;SDS011;63966;47.914;22.266;2023-04-19T07:57:23;7.60;;;2.43;;
75386;SDS011;63966;47.914;22.266;2023-04-19T08:00:26;5.70;;;1.98;;
75386;SDS011;63966;47.914;22.266;2023-04-19T08:03:32;5.00;;;2.45;;
75386;SDS011;63966;47.914;22.266;2023-04-19T08:06:36;4.88;;;2.50;;
75386;SDS011;63966;47.914;22.266;2023-04-19T08:09:42;9.10;;;3.45;;
75386;SDS011;63966;47.914;22.266;2023-04-19T08:12:46;4.83;;;2.17;;
75386;SDS011;63966;47.914;22.266;2023-04-19T08:16:07;7.93;;;2.50;;
75386;SDS011;63966;47.914;22.266;2023-04-19T08:19:13;8.90;;;3.05;;
75386;SDS011;63966;47.914;22.266;2023-04-19T08:22:17;7.72;;;2.83;;
75386;SDS011;63966;47.914;22.266;2023-04-19T08:25:22;6.20;;;3.17;;
75386;SDS011;63966;47.914;22.266;2023-04-19T08:32:24;10.27;;;3.08;;
75386;SDS011;63966;47.914;22.266;2023-04-19T08:35:28;6.28;;;2.58;;
75386;SDS011;63966;47.914;22.266;2023-04-19T08:38:31;7.68;;;2.70;;
75386;SDS011;63966;47.914;22.266;2023-04-19T08:41:35;7.22;;;2.50;;
75386;SDS011;63966;47.914;22.266;2023-04-19T08:44:39;6.50;;;2.47;;
75386;SDS011;63966;47.914;22.266;2023-04-19T08:48:05;9.55;;;2.80;;
75386;SDS011;63966;47.914;22.266;2023-04-19T08:51:13;7.68;;;2.85;;
75386;SDS011;63966;47.914;22.266;2023-04-19T08:54:21;5.35;;;2.30;;
75386;SDS011;63966;47.914;22.266;2023-04-19T08:57:24;4.75;;;2.60;;
75386;SDS011;63966;47.914;22.266;2023-04-19T09:00:28;6.07;;;2.40;;
75386;SDS011;63966;47.914;22.266;2023-04-19T09:03:34;7.50;;;2.42;;
75386;SDS011;63966;47.914;22.266;2023-04-19T09:07:02;5.38;;;1.98;;
75386;SDS011;63966;47.914;22.266;2023-04-19T09:10:06;5.45;;;2.13;;
75386;SDS011;63966;47.914;22.266;2023-04-19T09:13:11;6.50;;;2.50;;
75386;SDS011;63966;47.914;22.266;2023-04-19T09:16:22;5.83;;;2.13;;
75386;SDS011;63966;47.914;22.266;2023-04-19T09:19:27;4.20;;;2.00;;
75386;SDS011;63966;47.914;22.266;2023-04-19T09:23:03;6.13;;;2.20;;
75386;SDS011;63966;47.914;22.266;2023-04-19T09:26:09;6.75;;;2.20;;
75386;SDS011;63966;47.914;22.266;2023-04-19T09:29:24;5.35;;;2.53;;
75386;SDS011;63966;47.914;22.266;2023-04-19T09:32:28;4.77;;;2.30;;
75386;SDS011;63966;47.914;22.266;2023-04-19T09:35:47;4.55;;;2.17;;
75386;SDS011;63966;47.914;22.266;2023-04-19T09:38:52;6.53;;;2.17;;
75386;SDS011;63966;47.914;22.266;2023-04-19T09:41:56;6.10;;;2.13;;
75386;SDS011;63966;47.914;22.266;2023-04-19T09:45:01;6.78;;;2.50;;
75386;SDS011;63966;47.914;22.266;2023-04-19T09:48:09;5.43;;;2.13;;
75386;SDS011;63966;47.914;22.266;2023-04-19T09:51:13;8.13;;;2.70;;
75386;SDS011;63966;47.914;22.266;2023-04-19T09:54:17;5.15;;;2.30;;
75386;SDS011;63966;47.914;22.266;2023-04-19T09:57:22;8.13;;;2.08;;
75386;SDS011;63966;47.914;22.266;2023-04-19T10:00:26;5.25;;;2.63;;
75386;SDS011;63966;47.914;22.266;2023-04-19T10:03:40;5.43;;;2.17;;
75386;SDS011;63966;47.914;22.266;2023-04-19T10:06:50;6.65;;;2.50;;
75386;SDS011;63966;47.914;22.266;2023-04-19T10:10:17;6.10;;;2.38;;
75386;SDS011;63966;47.914;22.266;2023-04-19T10:13:41;7.78;;;2.25;;
75386;SDS011;63966;47.914;22.266;2023-04-19T10:16:47;6.40;;;2.30;;
75386;SDS011;63966;47.914;22.266;2023-04-19T10:19:54;5.87;;;2.07;;
75386;SDS011;63966;47.914;22.266;2023-04-19T10:23:01;10.23;;;2.00;;
75386;SDS011;63966;47.914;22.266;2023-04-19T10:26:08;12.57;;;2.90;;
75386;SDS011;63966;47.914;22.266;2023-04-19T10:29:11;5.63;;;2.10;;
75386;SDS011;63966;47.914;22.266;2023-04-19T10:32:15;5.20;;;2.38;;
75386;SDS011;63966;47.914;22.266;2023-04-19T10:35:20;5.70;;;2.20;;
75386;SDS011;63966;47.914;22.266;2023-04-19T10:38:40;6.93;;;2.47;;
75386;SDS011;63966;47.914;22.266;2023-04-19T10:41:57;8.02;;;2.65;;
75386;SDS011;63966;47.914;22.266;2023-04-19T10:48:51;6.30;;;2.30;;
75386;SDS011;63966;47.914;22.266;2023-04-19T10:51:58;4.63;;;2.03;;
75386;SDS011;63966;47.914;22.266;2023-04-19T10:55:02;5.47;;;1.90;;
75386;SDS011;63966;47.914;22.266;2023-04-19T10:58:07;5.82;;;2.15;;
75386;SDS011;63966;47.914;22.266;2023-04-19T11:01:30;4.38;;;2.03;;
75386;SDS011;63966;47.914;22.266;2023-04-19T11:07:48;5.83;;;2.30;;
75386;SDS011;63966;47.914;22.266;2023-04-19T11:10:51;5.05;;;2.50;;
75386;SDS011;63966;47.914;22.266;2023-04-19T11:13:59;6.88;;;2.33;;
75386;SDS011;63966;47.914;22.266;2023-04-19T11:17:17;5.35;;;2.63;;
75386;SDS011;63966;47.914;22.266;2023-04-19T11:20:28;9.43;;;2.97;;
75386;SDS011;63966;47.914;22.266;2023-04-19T11:23:32;7.47;;;3.33;;
75386;SDS011;63966;47.914;22.266;2023-04-19T11:26:36;8.77;;;2.95;;
75386;SDS011;63966;47.914;22.266;2023-04-19T11:29:39;8.20;;;3.03;;
75386;SDS011;63966;47.914;22.266;2023-04-19T11:32:43;7.35;;;3.50;;
75386;SDS011;63966;47.914;22.266;2023-04-19T11:35:48;7.38;;;3.67;;
75386;SDS011;63966;47.914;22.266;2023-04-19T11:38:52;8.73;;;3.20;;
75386;SDS011;63966;47.914;22.266;2023-04-19T11:41:56;7.07;;;3.10;;
75386;SDS011;63966;47.914;22.266;2023-04-19T11:45:00;8.45;;;3.50;;
75386;SDS011;63966;47.914;22.266;2023-04-19T11:48:04;7.10;;;3.00;;
75386;SDS011;63966;47.914;22.266;2023-04-19T11:51:09;8.40;;;3.92;;
75386;SDS011;63966;47.914;22.266;2023-04-19T11:54:13;7.30;;;3.27;;
75386;SDS011;63966;47.914;22.266;2023-04-19T11:57:27;7.85;;;3.88;;
75386;SDS011;63966;47.914;22.266;2023-04-19T12:00:32;10.70;;;3.80;;
75386;SDS011;63966;47.914;22.266;2023-04-19T12:03:39;7.97;;;3.50;;
75386;SDS011;63966;47.914;22.266;2023-04-19T12:07:00;10.25;;;3.78;;
75386;SDS011;63966;47.914;22.266;2023-04-19T12:10:09;7.03;;;3.27;;
75386;SDS011;63966;47.914;22.266;2023-04-19T12:13:16;8.88;;;3.90;;
75386;SDS011;63966;47.914;22.266;2023-04-19T12:16:26;6.70;;;3.45;;
75386;SDS011;63966;47.914;22.266;2023-04-19T12:19:33;9.10;;;2.90;;
75386;SDS011;63966;47.914;22.266;2023-04-19T12:22:38;6.47;;;3.00;;
75386;SDS011;63966;47.914;22.266;2023-04-19T12:25:45;8.07;;;3.10;;
75386;SDS011;63966;47.914;22.266;2023-04-19T12:28:50;8.10;;;3.33;;
75386;SDS011;63966;47.914;22.266;2023-04-19T12:31:54;5.43;;;3.10;;
75386;SDS011;63966;47.914;22.266;2023-04-19T12:35:01;8.43;;;4.13;;
75386;SDS011;63966;47.914;22.266;2023-04-19T12:38:04;8.68;;;4.50;;
75386;SDS011;63966;47.914;22.266;2023-04-19T12:41:08;8.27;;;4.20;;
75386;SDS011;63966;47.914;22.266;2023-04-19T12:44:12;8.65;;;3.97;;
75386;SDS011;63966;47.914;22.266;2023-04-19T12:47:17;9.13;;;4.00;;
75386;SDS011;63966;47.914;22.266;2023-04-19T12:50:20;8.25;;;4.20;;
75386;SDS011;63966;47.914;22.266;2023-04-19T12:53:24;6.88;;;3.72;;
75386;SDS011;63966;47.914;22.266;2023-04-19T12:56:27;6.37;;;3.10;;
75386;SDS011;63966;47.914;22.266;2023-04-19T12:59:31;8.85;;;3.75;;
75386;SDS011;63966;47.914;22.266;2023-04-19T13:02:34;8.00;;;3.70;;
75386;SDS011;63966;47.914;22.266;2023-04-19T13:05:38;8.35;;;3.60;;
75386;SDS011;63966;47.914;22.266;2023-04-19T13:08:42;6.25;;;2.78;;
75386;SDS011;63966;47.914;22.266;2023-04-19T13:11:49;6.43;;;2.97;;
75386;SDS011;63966;47.914;22.266;2023-04-19T13:14:52;6.00;;;2.72;;
75386;SDS011;63966;47.914;22.266;2023-04-19T13:17:56;8.27;;;2.83;;
75386;SDS011;63966;47.914;22.266;2023-04-19T13:20:59;6.50;;;3.17;;
75386;SDS011;63966;47.914;22.266;2023-04-19T13:24:03;11.05;;;3.55;;
75386;SDS011;63966;47.914;22.266;2023-04-19T13:27:06;7.30;;;3.90;;
75386;SDS011;63966;47.914;22.266;2023-04-19T13:30:10;7.13;;;3.55;;
75386;SDS011;63966;47.914;22.266;2023-04-19T13:33:14;7.70;;;3.55;;
75386;SDS011;63966;47.914;22.266;2023-04-19T13:36:19;7.40;;;3.50;;
75386;SDS011;63966;47.914;22.266;2023-04-19T13:39:23;8.20;;;3.67;;
75386;SDS011;63966;47.914;22.266;2023-04-19T13:42:26;8.70;;;3.60;;
75386;SDS011;63966;47.914;22.266;2023-04-19T13:45:30;9.07;;;3.30;;
75386;SDS011;63966;47.914;22.266;2023-04-19T13:48:34;7.80;;;3.75;;
75386;SDS011;63966;47.914;22.266;2023-04-19T13:51:38;8.55;;;3.10;;
75386;SDS011;63966;47.914;22.266;2023-04-19T13:54:51;11.57;;;5.55;;
75386;SDS011;63966;47.914;22.266;2023-04-19T13:57:55;6.23;;;2.93;;
75386;SDS011;63966;47.914;22.266;2023-04-19T14:00:58;7.28;;;3.05;;
75386;SDS011;63966;47.914;22.266;2023-04-19T14:04:02;6.65;;;3.40;;
75386;SDS011;63966;47.914;22.266;2023-04-19T14:07:06;7.28;;;3.53;;
75386;SDS011;63966;47.914;22.266;2023-04-19T14:10:09;8.23;;;4.55;;
75386;SDS011;63966;47.914;22.266;2023-04-19T14:13:13;7.20;;;3.40;;
75386;SDS011;63966;47.914;22.266;2023-04-19T14:16:17;9.95;;;4.10;;
75386;SDS011;63966;47.914;22.266;2023-04-19T14:19:21;8.18;;;4.00;;
75386;SDS011;63966;47.914;22.266;2023-04-19T14:22:25;9.30;;;4.20;;
75386;SDS011;63966;47.914;22.266;2023-04-19T14:25:28;7.28;;;4.03;;
75386;SDS011;63966;47.914;22.266;2023-04-19T14:28:32;8.67;;;3.77;;
75386;SDS011;63966;47.914;22.266;2023-04-19T14:31:35;7.80;;;3.97;;
75386;SDS011;63966;47.914;22.266;2023-04-19T14:34:39;9.02;;;4.30;;
75386;SDS011;63966;47.914;22.266;2023-04-19T14:37:42;9.10;;;4.20;;
75386;SDS011;63966;47.914;22.266;2023-04-19T14:40:46;10.40;;;4.72;;
75386;SDS011;63966;47.914;22.266;2023-04-19T14:43:49;8.40;;;4.17;;
75386;SDS011;63966;47.914;22.266;2023-04-19T14:46:53;7.95;;;4.15;;
75386;SDS011;63966;47.914;22.266;2023-04-19T14:49:56;10.48;;;4.15;;
75386;SDS011;63966;47.914;22.266;2023-04-19T14:53:00;10.23;;;5.28;;
75386;SDS011;63966;47.914;22.266;2023-04-19T14:56:04;10.20;;;4.50;;
75386;SDS011;63966;47.914;22.266;2023-04-19T14:59:08;9.77;;;5.67;;
75386;SDS011;63966;47.914;22.266;2023-04-19T15:02:11;9.15;;;5.07;;
75386;SDS011;63966;47.914;22.266;2023-04-19T15:05:15;13.30;;;5.75;;
75386;SDS011;63966;47.914;22.266;2023-04-19T15:08:19;10.00;;;4.97;;
75386;SDS011;63966;47.914;22.266;2023-04-19T15:11:31;10.68;;;4.80;;
75386;SDS011;63966;47.914;22.266;2023-04-19T15:14:35;11.20;;;5.17;;
75386;SDS011;63966;47.914;22.266;2023-04-19T15:17:39;9.82;;;5.15;;
75386;SDS011;63966;47.914;22.266;2023-04-19T15:20:43;9.07;;;5.13;;
75386;SDS011;63966;47.914;22.266;2023-04-19T15:23:48;9.68;;;4.95;;
75386;SDS011;63966;47.914;22.266;2023-04-19T15:26:51;10.07;;;5.13;;
75386;SDS011;63966;47.914;22.266;2023-04-19T15:29:55;8.13;;;4.63;;
75386;SDS011;63966;47.914;22.266;2023-04-19T15:32:58;8.13;;;4.75;;
75386;SDS011;63966;47.914;22.266;2023-04-19T15:36:02;9.35;;;4.85;;
75386;SDS011;63966;47.914;22.266;2023-04-19T15:39:07;12.25;;;5.43;;
75386;SDS011;63966;47.914;22.266;2023-04-19T15:42:10;14.35;;;10.50;;
75386;SDS011;63966;47.914;22.266;2023-04-19T15:45:14;9.50;;;5.40;;
75386;SDS011;63966;47.914;22.266;2023-04-19T15:48:18;8.82;;;5.22;;
75386;SDS011;63966;47.914;22.266;2023-04-19T15:51:22;9.90;;;5.82;;
75386;SDS011;63966;47.914;22.266;2023-04-19T15:54:25;9.25;;;4.82;;
75386;SDS011;63966;47.914;22.266;2023-04-19T15:57:30;8.52;;;5.40;;
75386;SDS011;63966;47.914;22.266;2023-04-19T16:00:33;9.87;;;5.87;;
75386;SDS011;63966;47.914;22.266;2023-04-19T16:03:37;9.95;;;5.10;;
75386;SDS011;63966;47.914;22.266;2023-04-19T16:06:46;10.73;;;5.47;;
75386;SDS011;63966;47.914;22.266;2023-04-19T16:09:49;13.02;;;5.65;;
75386;SDS011;63966;47.914;22.266;2023-04-19T16:12:53;14.73;;;6.70;;
75386;SDS011;63966;47.914;22.266;2023-04-19T16:15:56;10.07;;;5.43;;
75386;SDS011;63966;47.914;22.266;2023-04-19T16:19:00;11.25;;;5.40;;
75386;SDS011;63966;47.914;22.266;2023-04-19T16:22:04;13.25;;;6.40;;
75386;SDS011;63966;47.914;22.266;2023-04-19T16:25:08;17.65;;;8.07;;
75386;SDS011;63966;47.914;22.266;2023-04-19T16:28:15;16.95;;;7.03;;
75386;SDS011;63966;47.914;22.266;2023-04-19T16:31:20;10.43;;;5.13;;
75386;SDS011;63966;47.914;22.266;2023-04-19T16:34:24;14.05;;;6.60;;
75386;SDS011;63966;47.914;22.266;2023-04-19T16:37:28;11.75;;;5.70;;
75386;SDS011;63966;47.914;22.266;2023-04-19T16:40:31;13.57;;;5.87;;
75386;SDS011;63966;47.914;22.266;2023-04-19T16:43:35;12.90;;;5.60;;
75386;SDS011;63966;47.914;22.266;2023-04-19T16:46:39;12.48;;;6.05;;
75386;SDS011;63966;47.914;22.266;2023-04-19T16:49:43;13.57;;;5.70;;
75386;SDS011;63966;47.914;22.266;2023-04-19T16:52:49;9.90;;;5.38;;
75386;SDS011;63966;47.914;22.266;2023-04-19T16:55:52;10.15;;;5.65;;
75386;SDS011;63966;47.914;22.266;2023-04-19T16:58:57;12.23;;;6.60;;
75386;SDS011;63966;47.914;22.266;2023-04-19T17:02:02;14.18;;;6.18;;
75386;SDS011;63966;47.914;22.266;2023-04-19T17:05:08;13.33;;;6.17;;
75386;SDS011;63966;47.914;22.266;2023-04-19T17:08:13;14.30;;;6.75;;
75386;SDS011;63966;47.914;22.266;2023-04-19T17:11:17;31.13;;;14.82;;
75386;SDS011;63966;47.914;22.266;2023-04-19T17:14:21;41.03;;;21.70;;
75386;SDS011;63966;47.914;22.266;2023-04-19T17:17:25;20.42;;;11.45;;
75386;SDS011;63966;47.914;22.266;2023-04-19T17:20:28;25.57;;;12.07;;
75386;SDS011;63966;47.914;22.266;2023-04-19T17:23:32;28.08;;;14.65;;
75386;SDS011;63966;47.914;22.266;2023-04-19T17:26:36;14.40;;;7.45;;
75386;SDS011;63966;47.914;22.266;2023-04-19T17:29:39;13.60;;;8.15;;
75386;SDS011;63966;47.914;22.266;2023-04-19T17:32:43;12.55;;;7.07;;
75386;SDS011;63966;47.914;22.266;2023-04-19T17:35:46;19.50;;;10.60;;
75386;SDS011;63966;47.914;22.266;2023-04-19T17:38:50;42.72;;;23.70;;
75386;SDS011;63966;47.914;22.266;2023-04-19T17:41:54;79.35;;;36.85;;
75386;SDS011;63966;47.914;22.266;2023-04-19T17:44:58;49.78;;;21.00;;
75386;SDS011;63966;47.914;22.266;2023-04-19T17:48:01;53.55;;;22.55;;
75386;SDS011;63966;47.914;22.266;2023-04-19T17:51:05;96.60;;;40.10;;
75386;SDS011;63966;47.914;22.266;2023-04-19T17:54:09;51.80;;;27.42;;
75386;SDS011;63966;47.914;22.266;2023-04-19T17:57:13;25.38;;;13.68;;
75386;SDS011;63966;47.914;22.266;2023-04-19T18:00:16;20.45;;;9.05;;
75386;SDS011;63966;47.914;22.266;2023-04-19T18:03:24;18.58;;;8.48;;
75386;SDS011;63966;47.914;22.266;2023-04-19T18:06:28;11.67;;;6.17;;
75386;SDS011;63966;47.914;22.266;2023-04-19T18:09:33;11.60;;;6.47;;
75386;SDS011;63966;47.914;22.266;2023-04-19T18:12:38;11.07;;;6.82;;
75386;SDS011;63966;47.914;22.266;2023-04-19T18:15:42;14.52;;;8.40;;
75386;SDS011;63966;47.914;22.266;2023-04-19T18:18:46;14.27;;;7.43;;
75386;SDS011;63966;47.914;22.266;2023-04-19T18:21:50;15.87;;;7.90;;
75386;SDS011;63966;47.914;22.266;2023-04-19T18:24:53;13.30;;;6.68;;
75386;SDS011;63966;47.914;22.266;2023-04-19T18:27:57;13.85;;;7.65;;